Norfolk — WDG2147 — position and weather

sailwx.info

Track history (hours):
 
Tides and Currents Weather Stations Pressure Air Temp Water Temp Dewpoint Dewpoint Depression Visibility Wind Speed Wind Dir Waves Ship Positions

Norfolk

Owner: Virginia Pilot Boat Corporation, Virginia Beach, VA. More information available from US FCC via Universal Licensing System and Coast Guard Vessel Documentation Center.

Last reported at 2017-Apr-26 20:05 UTC. Time now 2017-Apr-27 03:21 UTC.
Position N 36°54' W 076°05'.

Length 18 m; draft 1.5 m.

Type: Pilot. MMSI: 367512630.

Date/timePositionNaut miles runAvg speedWind from/ knotsBaromVisibWave heightAir tempDewpointWater temp
2017-Apr-26 20:05N 36°54' W 076°05'0 0.0
2017-Apr-26 19:53N 36°54' W 076°05'514.3
2017-Apr-26 19:30N 36°56' W 075°59'4 8.1
2017-Apr-26 19:00N 36°56' W 076°04'2 2.6
2017-Apr-26 18:17N 36°54' W 076°05'0 0.0
2017-Apr-26 18:00N 36°54' W 076°05'0 0.0
2017-Apr-26 17:30N 36°54' W 076°05'0 0.0
2017-Apr-26 16:59N 36°54' W 076°05'0 0.0
2017-Apr-26 16:29N 36°54' W 076°05'0 0.0
2017-Apr-26 15:08N 36°54' W 076°05'0 0.4
2017-Apr-26 15:00N 36°54' W 076°05'4 7.8
2017-Apr-26 14:30N 36°56' W 076°01'4 2.1
2017-Apr-26 12:35N 36°54' W 076°05'0 5.6
2017-Apr-26 12:30N 36°55' W 076°05'611.8
2017-Apr-26 11:58N 36°57' W 075°58'511.1
2017-Apr-26 11:30N 36°56' W 076°04'1 0.1
2017-Apr-26 01:38N 36°54' W 076°06'0 0.1
2017-Apr-25 23:14N 36°54' W 076°05'0 0.1
2017-Apr-25 23:00N 36°54' W 076°05'0 0.0
2017-Apr-25 22:30N 36°54' W 076°05'0 0.0
2017-Apr-25 22:00N 36°54' W 076°05'0 0.0
2017-Apr-25 21:30N 36°54' W 076°05'0 0.0
2017-Apr-25 21:00N 36°54' W 076°05'0 0.0
2017-Apr-25 20:29N 36°54' W 076°05'0 0.0
2017-Apr-25 19:50N 36°54' W 076°05'1 2.5
2017-Apr-25 19:28N 36°55' W 076°05'817.7
2017-Apr-25 19:00N 36°55' W 075°55'816.4
2017-Apr-25 18:30N 36°55' W 076°05'1 0.5
2017-Apr-25 16:36N 36°54' W 076°05'0 0.2
2017-Apr-25 16:26N 36°54' W 076°05'4 9.8
2017-Apr-25 16:00N 36°57' W 076°01'1 2.0
2017-Apr-25 15:17N 36°56' W 076°03'3 9.9
2017-Apr-25 14:59N 36°54' W 076°05'0 0.0
2017-Apr-25 14:00N 36°54' W 076°05'0 0.0
2017-Apr-25 13:14N 36°54' W 076°05'0 0.0
2017-Apr-25 13:00N 36°54' W 076°05'2 3.3
2017-Apr-25 12:30N 36°56' W 076°04'3 4.6
2017-Apr-25 11:52N 36°56' W 076°01'3 9.7
2017-Apr-25 11:30N 36°55' W 076°05'1 1.6
2017-Apr-25 10:50N 36°54' W 076°05'0 0.0
2017-Apr-24 18:58N 36°54' W 076°05'0 0.0
2017-Apr-24 18:26N 36°54' W 076°05'0 0.0
2017-Apr-24 17:59N 36°54' W 076°05'0 0.0
2017-Apr-24 17:30N 36°54' W 076°05'0 0.9
2017-Apr-24 16:59N 36°55' W 076°05'4 2.3
2017-Apr-24 15:21N 36°59' W 076°05'412.2
2017-Apr-24 15:00N 36°54' W 076°05'0 0.0
2017-Apr-24 14:30N 36°54' W 076°05'0 0.0
2017-Apr-24 11:24N 36°54' W 076°05'0 0.0
2017-Apr-24 07:25N 36°54' W 076°05'0 0.0
2017-Apr-23 23:50N 36°54' W 076°05'0 0.0
2017-Apr-23 23:24N 36°54' W 076°05'717.5
2017-Apr-23 22:59N 36°56' W 075°57'713.0
2017-Apr-23 22:28N 36°55' W 076°05'1 0.4
2017-Apr-23 20:08N 36°54' W 076°05'215.9
2017-Apr-23 20:00N 36°56' W 076°04'2 2.7
2017-Apr-23 19:21N 36°56' W 076°02'4 3.3
2017-Apr-23 18:16N 36°54' W 076°05'414.3
2017-Apr-23 18:00N 36°57' W 076°02'4 8.8
2017-Apr-23 17:30N 36°56' W 075°56'713.7
2017-Apr-23 16:59N 36°55' W 076°05'1 0.6
2017-Apr-23 15:28N 36°54' W 076°05'611.1
2017-Apr-23 14:56N 36°56' W 075°58'6 6.4
2017-Apr-23 14:00N 36°54' W 076°05'0 0.0
2017-Apr-23 13:30N 36°54' W 076°05'0 0.0
2017-Apr-23 13:00N 36°54' W 076°05'0 0.0
2017-Apr-23 12:31N 36°54' W 076°05'4 8.0
2017-Apr-23 12:00N 36°57' W 076°01'1 1.5
2017-Apr-23 11:30N 36°56' W 076°02'3 6.1
2017-Apr-23 10:57N 36°54' W 076°05'1 0.3
2017-Apr-23 06:58N 36°55' W 076°05'3 0.6
2017-Apr-23 01:18N 36°57' W 076°02'4 0.9
2017-Apr-22 20:37N 36°54' W 076°05'0 0.0
2017-Apr-22 14:41N 36°54' W 076°05'213.4
2017-Apr-22 14:30N 36°56' W 076°03'2 2.3
2017-Apr-22 13:30N 36°54' W 076°05'3 5.7
2017-Apr-22 13:00N 36°56' W 076°03'1 1.7
2017-Apr-22 12:29N 36°56' W 076°02'4 7.3
2017-Apr-22 12:00N 36°54' W 076°05'0 0.0
2017-Apr-22 11:30N 36°54' W 076°05'0 0.0
2017-Apr-22 02:59N 36°54' W 076°05'1 0.3
2017-Apr-21 22:36N 36°55' W 076°05'323.7
2017-Apr-21 22:29N 36°57' W 076°02'4 3.1
2017-Apr-21 21:22N 36°54' W 076°05'0 0.0
2017-Apr-21 17:45N 36°54' W 076°05'0 0.0
2017-Apr-21 17:23N 36°54' W 076°05'0 0.0
2017-Apr-21 16:49N 36°54' W 076°05'2 3.5
2017-Apr-21 16:12N 36°56' W 076°04'210.2
2017-Apr-21 16:00N 36°57' W 076°02'4 6.7
2017-Apr-21 15:24N 36°54' W 076°05'0 0.0
2017-Apr-21 14:55N 36°54' W 076°05'0 0.0
2017-Apr-21 14:30N 36°54' W 076°05'0 0.0
2017-Apr-21 13:20N 36°54' W 076°05'0 0.0
2017-Apr-21 10:55N 36°54' W 076°05'1 0.3
2017-Apr-21 07:43N 36°55' W 076°05'1 0.1
2017-Apr-20 19:28N 36°54' W 076°05'4 6.9
2017-Apr-20 18:54N 36°56' W 076°01'4 4.9
2017-Apr-20 18:05N 36°54' W 076°05'112.3
2017-Apr-20 18:00N 36°55' W 076°05'3 5.5
2017-Apr-20 17:25N 36°56' W 076°01'4 5.2
2017-Apr-20 16:40N 36°54' W 076°05'0 0.0
2017-Apr-20 12:15N 36°54' W 076°05'2 1.2
2017-Apr-20 10:43N 36°56' W 076°05'2 1.4
2017-Apr-20 09:19N 36°54' W 076°05'0 0.0
2017-Apr-20 04:17N 36°54' W 076°06'4 0.8
2017-Apr-19 23:41N 36°56' W 076°02'420.8
2017-Apr-19 23:31N 36°55' W 076°05'0 0.1
2017-Apr-19 20:25N 36°54' W 076°05'0 0.0
2017-Apr-19 18:09N 36°54' W 076°05'315.9
2017-Apr-19 17:57N 36°56' W 076°02'2 2.3
2017-Apr-19 17:17N 36°56' W 076°04'2 0.5
2017-Apr-19 13:32N 36°54' W 076°05'214.3
2017-Apr-19 13:25N 36°56' W 076°04'1 0.1
2017-Apr-18 16:36N 36°54' W 076°05'218.7
2017-Apr-18 16:30N 36°56' W 076°04'5 6.8
2017-Apr-18 15:49N 36°57' W 075°58'6 3.7
2017-Apr-18 14:10N 36°54' W 076°05'2 2.3
2017-Apr-18 13:19N 36°56' W 076°04'2 0.9
2017-Apr-18 11:06N 36°54' W 076°05'114.7
2017-Apr-18 11:00N 36°56' W 076°04'1 0.6
2017-Apr-18 08:19N 36°54' W 076°05'815.9
2017-Apr-18 07:50N 36°56' W 075°56'816.7
2017-Apr-18 07:23N 36°54' W 076°05'0 0.0
2017-Apr-18 01:34N 36°54' W 076°05'115.3
2017-Apr-18 01:30N 36°55' W 076°05'7 6.7
2017-Apr-18 00:25N 36°56' W 075°56'816.5
2017-Apr-17 23:57N 36°54' W 076°05'0 0.0
2017-Apr-17 22:48N 36°54' W 076°05'0 0.0
2017-Apr-17 22:26N 36°54' W 076°05'410.1
2017-Apr-17 22:00N 36°57' W 076°01'1 1.8
2017-Apr-17 21:30N 36°56' W 076°02'3 2.2
2017-Apr-17 19:58N 36°54' W 076°05'3 6.2
2017-Apr-17 19:27N 36°57' W 076°03'612.8
2017-Apr-17 18:58N 36°55' W 075°55'817.5
2017-Apr-17 18:30N 36°55' W 076°05'1 0.5
2017-Apr-17 16:29N 36°54' W 076°05'0 0.0
2017-Apr-17 16:00N 36°54' W 076°05'0 0.0
2017-Apr-17 15:29N 36°54' W 076°05'0 0.0
2017-Apr-17 10:59N 36°54' W 076°05'2 0.2
2017-Apr-16 22:24N 36°57' W 076°05'2 5.1
2017-Apr-16 21:55N 36°54' W 076°05'715.9
2017-Apr-16 21:30N 36°57' W 075°58'7 8.1
2017-Apr-16 20:42N 36°54' W 076°05'  
Track history (hours):
 
Tides and Currents Weather Stations Pressure Air Temp Water Temp Dewpoint Dewpoint Depression Visibility Wind Speed Wind Dir Waves Ship Positions

Norfolk

Owner: Virginia Pilot Boat Corporation, Virginia Beach, VA. More information available from US FCC via Universal Licensing System and Coast Guard Vessel Documentation Center.

Last reported at 2017-Apr-26 20:05 UTC. Time now 2017-Apr-27 03:21 UTC.
Position N 36°54' W 076°05'.

Length 18 m; draft 1.5 m.

Type: Pilot. MMSI: 367512630.

Date/timePositionNaut miles runAvg speedWind from/ knotsBaromVisibWave heightAir tempDewpointWater temp
2017-Apr-26 20:05N 36°54' W 076°05'0 0.0
2017-Apr-26 19:53N 36°54' W 076°05'514.3
2017-Apr-26 19:30N 36°56' W 075°59'4 8.1
2017-Apr-26 19:00N 36°56' W 076°04'2 2.6
2017-Apr-26 18:17N 36°54' W 076°05'0 0.0
2017-Apr-26 18:00N 36°54' W 076°05'0 0.0
2017-Apr-26 17:30N 36°54' W 076°05'0 0.0
2017-Apr-26 16:59N 36°54' W 076°05'0 0.0
2017-Apr-26 16:29N 36°54' W 076°05'0 0.0
2017-Apr-26 15:08N 36°54' W 076°05'0 0.4
2017-Apr-26 15:00N 36°54' W 076°05'4 7.8
2017-Apr-26 14:30N 36°56' W 076°01'4 2.1
2017-Apr-26 12:35N 36°54' W 076°05'0 5.6
2017-Apr-26 12:30N 36°55' W 076°05'611.8
2017-Apr-26 11:58N 36°57' W 075°58'511.1
2017-Apr-26 11:30N 36°56' W 076°04'1 0.1
2017-Apr-26 01:38N 36°54' W 076°06'0 0.1
2017-Apr-25 23:14N 36°54' W 076°05'0 0.1
2017-Apr-25 23:00N 36°54' W 076°05'0 0.0
2017-Apr-25 22:30N 36°54' W 076°05'0 0.0
2017-Apr-25 22:00N 36°54' W 076°05'0 0.0
2017-Apr-25 21:30N 36°54' W 076°05'0 0.0
2017-Apr-25 21:00N 36°54' W 076°05'0 0.0
2017-Apr-25 20:29N 36°54' W 076°05'0 0.0
2017-Apr-25 19:50N 36°54' W 076°05'1 2.5
2017-Apr-25 19:28N 36°55' W 076°05'817.7
2017-Apr-25 19:00N 36°55' W 075°55'816.4
2017-Apr-25 18:30N 36°55' W 076°05'1 0.5
2017-Apr-25 16:36N 36°54' W 076°05'0 0.2
2017-Apr-25 16:26N 36°54' W 076°05'4 9.8
2017-Apr-25 16:00N 36°57' W 076°01'1 2.0
2017-Apr-25 15:17N 36°56' W 076°03'3 9.9
2017-Apr-25 14:59N 36°54' W 076°05'0 0.0
2017-Apr-25 14:00N 36°54' W 076°05'0 0.0
2017-Apr-25 13:14N 36°54' W 076°05'0 0.0
2017-Apr-25 13:00N 36°54' W 076°05'2 3.3
2017-Apr-25 12:30N 36°56' W 076°04'3 4.6
2017-Apr-25 11:52N 36°56' W 076°01'3 9.7
2017-Apr-25 11:30N 36°55' W 076°05'1 1.6
2017-Apr-25 10:50N 36°54' W 076°05'0 0.0
2017-Apr-24 18:58N 36°54' W 076°05'0 0.0
2017-Apr-24 18:26N 36°54' W 076°05'0 0.0
2017-Apr-24 17:59N 36°54' W 076°05'0 0.0
2017-Apr-24 17:30N 36°54' W 076°05'0 0.9
2017-Apr-24 16:59N 36°55' W 076°05'4 2.3
2017-Apr-24 15:21N 36°59' W 076°05'412.2
2017-Apr-24 15:00N 36°54' W 076°05'0 0.0
2017-Apr-24 14:30N 36°54' W 076°05'0 0.0
2017-Apr-24 11:24N 36°54' W 076°05'0 0.0
2017-Apr-24 07:25N 36°54' W 076°05'0 0.0
2017-Apr-23 23:50N 36°54' W 076°05'0 0.0
2017-Apr-23 23:24N 36°54' W 076°05'717.5
2017-Apr-23 22:59N 36°56' W 075°57'713.0
2017-Apr-23 22:28N 36°55' W 076°05'1 0.4
2017-Apr-23 20:08N 36°54' W 076°05'215.9
2017-Apr-23 20:00N 36°56' W 076°04'2 2.7
2017-Apr-23 19:21N 36°56' W 076°02'4 3.3
2017-Apr-23 18:16N 36°54' W 076°05'414.3
2017-Apr-23 18:00N 36°57' W 076°02'4 8.8
2017-Apr-23 17:30N 36°56' W 075°56'713.7
2017-Apr-23 16:59N 36°55' W 076°05'1 0.6
2017-Apr-23 15:28N 36°54' W 076°05'611.1
2017-Apr-23 14:56N 36°56' W 075°58'6 6.4
2017-Apr-23 14:00N 36°54' W 076°05'0 0.0
2017-Apr-23 13:30N 36°54' W 076°05'0 0.0
2017-Apr-23 13:00N 36°54' W 076°05'0 0.0
2017-Apr-23 12:31N 36°54' W 076°05'4 8.0
2017-Apr-23 12:00N 36°57' W 076°01'1 1.5
2017-Apr-23 11:30N 36°56' W 076°02'3 6.1
2017-Apr-23 10:57N 36°54' W 076°05'1 0.3
2017-Apr-23 06:58N 36°55' W 076°05'3 0.6
2017-Apr-23 01:18N 36°57' W 076°02'4 0.9
2017-Apr-22 20:37N 36°54' W 076°05'0 0.0
2017-Apr-22 14:41N 36°54' W 076°05'213.4
2017-Apr-22 14:30N 36°56' W 076°03'2 2.3
2017-Apr-22 13:30N 36°54' W 076°05'3 5.7
2017-Apr-22 13:00N 36°56' W 076°03'1 1.7
2017-Apr-22 12:29N 36°56' W 076°02'4 7.3
2017-Apr-22 12:00N 36°54' W 076°05'0 0.0
2017-Apr-22 11:30N 36°54' W 076°05'0 0.0
2017-Apr-22 02:59N 36°54' W 076°05'1 0.3
2017-Apr-21 22:36N 36°55' W 076°05'323.7
2017-Apr-21 22:29N 36°57' W 076°02'4 3.1
2017-Apr-21 21:22N 36°54' W 076°05'0 0.0
2017-Apr-21 17:45N 36°54' W 076°05'0 0.0
2017-Apr-21 17:23N 36°54' W 076°05'0 0.0
2017-Apr-21 16:49N 36°54' W 076°05'2 3.5
2017-Apr-21 16:12N 36°56' W 076°04'210.2
2017-Apr-21 16:00N 36°57' W 076°02'4 6.7
2017-Apr-21 15:24N 36°54' W 076°05'0 0.0
2017-Apr-21 14:55N 36°54' W 076°05'0 0.0
2017-Apr-21 14:30N 36°54' W 076°05'0 0.0
2017-Apr-21 13:20N 36°54' W 076°05'0 0.0
2017-Apr-21 10:55N 36°54' W 076°05'1 0.3
2017-Apr-21 07:43N 36°55' W 076°05'1 0.1
2017-Apr-20 19:28N 36°54' W 076°05'4 6.9
2017-Apr-20 18:54N 36°56' W 076°01'4 4.9
2017-Apr-20 18:05N 36°54' W 076°05'112.3
2017-Apr-20 18:00N 36°55' W 076°05'3 5.5
2017-Apr-20 17:25N 36°56' W 076°01'4 5.2
2017-Apr-20 16:40N 36°54' W 076°05'0 0.0
2017-Apr-20 12:15N 36°54' W 076°05'2 1.2
2017-Apr-20 10:43N 36°56' W 076°05'2 1.4
2017-Apr-20 09:19N 36°54' W 076°05'0 0.0
2017-Apr-20 04:17N 36°54' W 076°06'4 0.8
2017-Apr-19 23:41N 36°56' W 076°02'420.8
2017-Apr-19 23:31N 36°55' W 076°05'0 0.1
2017-Apr-19 20:25N 36°54' W 076°05'0 0.0
2017-Apr-19 18:09N 36°54' W 076°05'315.9
2017-Apr-19 17:57N 36°56' W 076°02'2 2.3
2017-Apr-19 17:17N 36°56' W 076°04'2 0.5
2017-Apr-19 13:32N 36°54' W 076°05'214.3
2017-Apr-19 13:25N 36°56' W 076°04'1 0.1
2017-Apr-18 16:36N 36°54' W 076°05'218.7
2017-Apr-18 16:30N 36°56' W 076°04'5 6.8
2017-Apr-18 15:49N 36°57' W 075°58'6 3.7
2017-Apr-18 14:10N 36°54' W 076°05'2 2.3
2017-Apr-18 13:19N 36°56' W 076°04'2 0.9
2017-Apr-18 11:06N 36°54' W 076°05'114.7
2017-Apr-18 11:00N 36°56' W 076°04'1 0.6
2017-Apr-18 08:19N 36°54' W 076°05'815.9
2017-Apr-18 07:50N 36°56' W 075°56'816.7
2017-Apr-18 07:23N 36°54' W 076°05'0 0.0
2017-Apr-18 01:34N 36°54' W 076°05'115.3
2017-Apr-18 01:30N 36°55' W 076°05'7 6.7
2017-Apr-18 00:25N 36°56' W 075°56'816.5
2017-Apr-17 23:57N 36°54' W 076°05'0 0.0
2017-Apr-17 22:48N 36°54' W 076°05'0 0.0
2017-Apr-17 22:26N 36°54' W 076°05'410.1
2017-Apr-17 22:00N 36°57' W 076°01'1 1.8
2017-Apr-17 21:30N 36°56' W 076°02'3 2.2
2017-Apr-17 19:58N 36°54' W 076°05'3 6.2
2017-Apr-17 19:27N 36°57' W 076°03'612.8
2017-Apr-17 18:58N 36°55' W 075°55'817.5
2017-Apr-17 18:30N 36°55' W 076°05'1 0.5
2017-Apr-17 16:29N 36°54' W 076°05'0 0.0
2017-Apr-17 16:00N 36°54' W 076°05'0 0.0
2017-Apr-17 15:29N 36°54' W 076°05'0 0.0
2017-Apr-17 10:59N 36°54' W 076°05'2 0.2
2017-Apr-16 22:24N 36°57' W 076°05'2 5.1
2017-Apr-16 21:55N 36°54' W 076°05'715.9
2017-Apr-16 21:30N 36°57' W 075°58'7 8.1
2017-Apr-16 20:42N 36°54' W 076°05'  

Dump ship's entire track history